sensor_id;sensor_type;location;lat;lon;timestamp;pressure;altitude;pressure_sealevel;temperature;humidity
61908;BME280;47864;52.526;19.672;2023-06-19T00:00:39;152745.38;;;14.95;100.00
61908;BME280;47864;52.526;19.672;2023-06-19T00:02:42;152740.31;;;14.93;100.00
61908;BME280;47864;52.526;19.672;2023-06-19T00:04:44;152770.75;;;15.05;100.00
61908;BME280;47864;52.526;19.672;2023-06-19T00:06:45;152772.03;;;15.06;100.00
61908;BME280;47864;52.526;19.672;2023-06-19T00:08:47;152784.69;;;15.11;100.00
61908;BME280;47864;52.526;19.672;2023-06-19T00:10:48;152745.38;;;14.95;100.00
61908;BME280;47864;52.526;19.672;2023-06-19T00:12:50;152753.00;;;14.98;100.00
61908;BME280;47864;52.526;19.672;2023-06-19T00:14:51;152773.31;;;15.06;100.00
61908;BME280;47864;52.526;19.672;2023-06-19T00:16:53;152764.41;;;15.03;100.00
61908;BME280;47864;52.526;19.672;2023-06-19T00:18:54;152747.94;;;14.96;100.00
61908;BME280;47864;52.526;19.672;2023-06-19T00:20:56;152744.13;;;14.95;100.00
61908;BME280;47864;52.526;19.672;2023-06-19T00:22:58;152741.56;;;14.94;100.00
61908;BME280;47864;52.526;19.672;2023-06-19T00:24:59;152739.03;;;14.93;100.00
61908;BME280;47864;52.526;19.672;2023-06-19T00:27:01;152697.19;;;14.76;100.00
61908;BME280;47864;52.526;19.672;2023-06-19T00:29:02;152683.25;;;14.70;100.00
61908;BME280;47864;52.526;19.672;2023-06-19T00:31:04;152676.91;;;14.68;100.00
61908;BME280;47864;52.526;19.672;2023-06-19T00:33:07;152698.47;;;14.76;100.00
61908;BME280;47864;52.526;19.672;2023-06-19T00:35:08;152733.94;;;14.91;100.00
61908;BME280;47864;52.526;19.672;2023-06-19T00:37:10;152728.91;;;14.89;100.00
61908;BME280;47864;52.526;19.672;2023-06-19T00:39:12;152722.56;;;14.86;100.00
61908;BME280;47864;52.526;19.672;2023-06-19T00:41:15;152726.38;;;14.88;100.00
61908;BME280;47864;52.526;19.672;2023-06-19T00:43:17;152726.38;;;14.88;100.00
61908;BME280;47864;52.526;19.672;2023-06-19T00:45:19;152723.81;;;14.87;100.00
61908;BME280;47864;52.526;19.672;2023-06-19T00:47:21;152722.56;;;14.86;100.00
61908;BME280;47864;52.526;19.672;2023-06-19T00:49:23;152659.16;;;14.61;100.00
61908;BME280;47864;52.526;19.672;2023-06-19T00:51:25;152706.09;;;14.79;100.00
61908;BME280;47864;52.526;19.672;2023-06-19T00:53:27;152692.16;;;14.74;100.00
61908;BME280;47864;52.526;19.672;2023-06-19T00:55:29;152721.28;;;14.85;100.00
61908;BME280;47864;52.526;19.672;2023-06-19T00:57:32;152703.53;;;14.78;100.00
61908;BME280;47864;52.526;19.672;2023-06-19T00:59:33;152708.63;;;14.80;100.00
61908;BME280;47864;52.526;19.672;2023-06-19T01:01:35;152711.16;;;14.81;100.00
61908;BME280;47864;52.526;19.672;2023-06-19T01:03:37;152702.28;;;14.78;100.00
61908;BME280;47864;52.526;19.672;2023-06-19T01:05:39;152690.88;;;14.73;100.00
61908;BME280;47864;52.526;19.672;2023-06-19T01:07:59;152690.88;;;14.73;100.00
61908;BME280;47864;52.526;19.672;2023-06-19T01:10:07;152698.47;;;14.76;100.00
61908;BME280;47864;52.526;19.672;2023-06-19T01:12:18;152682.00;;;14.70;100.00
61908;BME280;47864;52.526;19.672;2023-06-19T01:14:26;152682.00;;;14.70;100.00
61908;BME280;47864;52.526;19.672;2023-06-19T01:16:30;152670.59;;;14.65;100.00
61908;BME280;47864;52.526;19.672;2023-06-19T01:18:32;152669.31;;;14.65;100.00
61908;BME280;47864;52.526;19.672;2023-06-19T01:20:33;152659.16;;;14.61;100.00
61908;BME280;47864;52.526;19.672;2023-06-19T01:22:35;152652.81;;;14.58;100.00
61908;BME280;47864;52.526;19.672;2023-06-19T01:24:37;152643.97;;;14.55;100.00
61908;BME280;47864;52.526;19.672;2023-06-19T01:26:38;152602.09;;;14.38;100.00
61908;BME280;47864;52.526;19.672;2023-06-19T01:28:42;152598.28;;;14.36;100.00
61908;BME280;47864;52.526;19.672;2023-06-19T01:30:44;152597.00;;;14.36;100.00
61908;BME280;47864;52.526;19.672;2023-06-19T01:34:47;152604.66;;;14.39;100.00
61908;BME280;47864;52.526;19.672;2023-06-19T01:36:51;152617.34;;;14.44;100.00
61908;BME280;47864;52.526;19.672;2023-06-19T01:38:54;152613.53;;;14.42;100.00
61908;BME280;47864;52.526;19.672;2023-06-19T01:40:59;152597.00;;;14.36;100.00
61908;BME280;47864;52.526;19.672;2023-06-19T01:43:02;152614.78;;;14.43;100.00
61908;BME280;47864;52.526;19.672;2023-06-19T01:45:05;152617.34;;;14.44;100.00
61908;BME280;47864;52.526;19.672;2023-06-19T01:47:09;152609.75;;;14.41;100.00
61908;BME280;47864;52.526;19.672;2023-06-19T01:49:11;152600.81;;;14.37;100.00
61908;BME280;47864;52.526;19.672;2023-06-19T01:51:12;152583.06;;;14.30;100.00
61908;BME280;47864;52.526;19.672;2023-06-19T01:53:14;152580.53;;;14.29;100.00
61908;BME280;47864;52.526;19.672;2023-06-19T01:55:16;152569.09;;;14.25;100.00
61908;BME280;47864;52.526;19.672;2023-06-19T01:57:18;152569.09;;;14.25;100.00
61908;BME280;47864;52.526;19.672;2023-06-19T01:59:20;152580.53;;;14.29;100.00
61908;BME280;47864;52.526;19.672;2023-06-19T02:01:21;152583.06;;;14.30;100.00
61908;BME280;47864;52.526;19.672;2023-06-19T02:03:23;152584.34;;;14.31;100.00
61908;BME280;47864;52.526;19.672;2023-06-19T02:05:25;152589.41;;;14.33;100.00
61908;BME280;47864;52.526;19.672;2023-06-19T02:07:26;152567.88;;;14.24;100.00
61908;BME280;47864;52.526;19.672;2023-06-19T02:09:28;152553.91;;;14.19;100.00
61908;BME280;47864;52.526;19.672;2023-06-19T02:11:29;152557.72;;;14.20;100.00
61908;BME280;47864;52.526;19.672;2023-06-19T02:13:31;152547.59;;;14.16;100.00
61908;BME280;47864;52.526;19.672;2023-06-19T02:15:33;152556.44;;;14.20;100.00
61908;BME280;47864;52.526;19.672;2023-06-19T02:17:34;152567.88;;;14.24;100.00
61908;BME280;47864;52.526;19.672;2023-06-19T02:19:36;152558.97;;;14.21;100.00
61908;BME280;47864;52.526;19.672;2023-06-19T02:21:38;152548.81;;;14.17;100.00
61908;BME280;47864;52.526;19.672;2023-06-19T02:23:40;152564.06;;;14.23;100.00
61908;BME280;47864;52.526;19.672;2023-06-19T02:25:41;152551.34;;;14.18;100.00
61908;BME280;47864;52.526;19.672;2023-06-19T02:27:43;152558.97;;;14.21;100.00
61908;BME280;47864;52.526;19.672;2023-06-19T02:29:44;152565.34;;;14.23;100.00
61908;BME280;47864;52.526;19.672;2023-06-19T02:31:46;152569.09;;;14.25;100.00
61908;BME280;47864;52.526;19.672;2023-06-19T02:33:48;152566.59;;;14.24;100.00
61908;BME280;47864;52.526;19.672;2023-06-19T02:35:49;152545.06;;;14.15;100.00
61908;BME280;47864;52.526;19.672;2023-06-19T02:37:51;152536.16;;;14.12;100.00
61908;BME280;47864;52.526;19.672;2023-06-19T02:39:52;152571.63;;;14.26;100.00
61908;BME280;47864;52.526;19.672;2023-06-19T02:41:54;152572.91;;;14.26;100.00
61908;BME280;47864;52.526;19.672;2023-06-19T02:43:55;152565.34;;;14.23;100.00
61908;BME280;47864;52.526;19.672;2023-06-19T02:45:57;152565.34;;;14.23;100.00
61908;BME280;47864;52.526;19.672;2023-06-19T02:47:59;152545.06;;;14.15;100.00
61908;BME280;47864;52.526;19.672;2023-06-19T02:50:02;152531.09;;;14.09;100.00
61908;BME280;47864;52.526;19.672;2023-06-19T02:52:04;152485.50;;;13.91;100.00
61908;BME280;47864;52.526;19.672;2023-06-19T02:54:06;152472.81;;;13.86;100.00
61908;BME280;47864;52.526;19.672;2023-06-19T02:56:08;152452.53;;;13.78;100.00
61908;BME280;47864;52.526;19.672;2023-06-19T02:58:09;152462.69;;;13.82;100.00
61908;BME280;47864;52.526;19.672;2023-06-19T03:00:11;152465.22;;;13.83;100.00
61908;BME280;47864;52.526;19.672;2023-06-19T03:02:13;152493.06;;;13.94;100.00
61908;BME280;47864;52.526;19.672;2023-06-19T03:04:14;152508.28;;;14.00;100.00
61908;BME280;47864;52.526;19.672;2023-06-19T03:06:16;152520.97;;;14.05;100.00
61908;BME280;47864;52.526;19.672;2023-06-19T03:08:17;152550.09;;;14.17;100.00
61908;BME280;47864;52.526;19.672;2023-06-19T03:10:19;152543.78;;;14.15;100.00
61908;BME280;47864;52.526;19.672;2023-06-19T03:12:20;152543.78;;;14.15;100.00
61908;BME280;47864;52.526;19.672;2023-06-19T03:14:22;152543.78;;;14.15;100.00
61908;BME280;47864;52.526;19.672;2023-06-19T03:16:23;152560.25;;;14.21;100.00
61908;BME280;47864;52.526;19.672;2023-06-19T03:18:25;152600.81;;;14.37;100.00
61908;BME280;47864;52.526;19.672;2023-06-19T03:20:27;152624.94;;;14.47;100.00
61908;BME280;47864;52.526;19.672;2023-06-19T03:22:28;152650.31;;;14.57;100.00
61908;BME280;47864;52.526;19.672;2023-06-19T03:24:30;152666.78;;;14.64;100.00
61908;BME280;47864;52.526;19.672;2023-06-19T03:26:32;152690.88;;;14.73;100.00
61908;BME280;47864;52.526;19.672;2023-06-19T03:28:33;152722.56;;;14.86;100.00
61908;BME280;47864;52.526;19.672;2023-06-19T03:30:35;152678.19;;;14.68;100.00
61908;BME280;47864;52.526;19.672;2023-06-19T03:32:36;152730.19;;;14.89;100.00
61908;BME280;47864;52.526;19.672;2023-06-19T03:34:38;152746.66;;;14.96;100.00
61908;BME280;47864;52.526;19.672;2023-06-19T03:36:39;152741.56;;;14.94;100.00
61908;BME280;47864;52.526;19.672;2023-06-19T03:38:41;152746.66;;;14.96;100.00
61908;BME280;47864;52.526;19.672;2023-06-19T03:40:42;152785.97;;;15.11;100.00
61908;BME280;47864;52.526;19.672;2023-06-19T03:42:44;152754.28;;;14.99;100.00
61908;BME280;47864;52.526;19.672;2023-06-19T03:44:46;152703.53;;;14.78;100.00
61908;BME280;47864;52.526;19.672;2023-06-19T03:46:47;152737.75;;;14.92;100.00
61908;BME280;47864;52.526;19.672;2023-06-19T03:48:49;152722.56;;;14.86;100.00
61908;BME280;47864;52.526;19.672;2023-06-19T03:50:50;152769.50;;;15.05;100.00
61908;BME280;47864;52.526;19.672;2023-06-19T03:52:52;152799.91;;;15.17;100.00
61908;BME280;47864;52.526;19.672;2023-06-19T03:54:53;152817.66;;;15.24;100.00
61908;BME280;47864;52.526;19.672;2023-06-19T03:56:55;152742.84;;;14.94;100.00
61908;BME280;47864;52.526;19.672;2023-06-19T03:58:57;152749.19;;;14.97;100.00
61908;BME280;47864;52.526;19.672;2023-06-19T04:00:58;152763.13;;;15.02;100.00
61908;BME280;47864;52.526;19.672;2023-06-19T04:03:00;152774.56;;;15.07;100.00
61908;BME280;47864;52.526;19.672;2023-06-19T04:05:02;152816.38;;;15.23;100.00
61908;BME280;47864;52.526;19.672;2023-06-19T04:07:03;152774.56;;;15.07;100.00
61908;BME280;47864;52.526;19.672;2023-06-19T04:09:05;152770.75;;;15.05;100.00
61908;BME280;47864;52.526;19.672;2023-06-19T04:11:07;152784.69;;;15.11;100.00
61908;BME280;47864;52.526;19.672;2023-06-19T04:13:08;152848.09;;;15.36;100.00
61908;BME280;47864;52.526;19.672;2023-06-19T04:15:10;152843.03;;;15.34;100.00
61908;BME280;47864;52.526;19.672;2023-06-19T04:17:11;152798.63;;;15.16;100.00
61908;BME280;47864;52.526;19.672;2023-06-19T04:19:13;152883.63;;;15.50;100.00
61908;BME280;47864;52.526;19.672;2023-06-19T04:21:14;152797.34;;;15.16;100.00
61908;BME280;47864;52.526;19.672;2023-06-19T04:23:16;152761.88;;;15.02;100.00
61908;BME280;47864;52.526;19.672;2023-06-19T04:25:17;152751.75;;;14.98;100.00
61908;BME280;47864;52.526;19.672;2023-06-19T04:27:19;152820.19;;;15.25;100.00
61908;BME280;47864;52.526;19.672;2023-06-19T04:29:21;152845.56;;;15.35;100.00
61908;BME280;47864;52.526;19.672;2023-06-19T04:31:23;152887.44;;;15.52;100.00
61908;BME280;47864;52.526;19.672;2023-06-19T04:33:24;152892.56;;;15.54;100.00
61908;BME280;47864;52.526;19.672;2023-06-19T04:35:26;152959.81;;;15.81;100.00
61908;BME280;47864;52.526;19.672;2023-06-19T04:37:28;152997.88;;;15.96;100.00
61908;BME280;47864;52.526;19.672;2023-06-19T04:39:30;153019.44;;;16.05;100.00
61908;BME280;47864;52.526;19.672;2023-06-19T04:41:31;153032.13;;;16.10;100.00
61908;BME280;47864;52.526;19.672;2023-06-19T04:43:33;153077.81;;;16.28;100.00
61908;BME280;47864;52.526;19.672;2023-06-19T04:45:34;153110.81;;;16.41;100.00
61908;BME280;47864;52.526;19.672;2023-06-19T04:47:36;153156.50;;;16.59;100.00
61908;BME280;47864;52.526;19.672;2023-06-19T04:49:52;153164.19;;;16.62;100.00
61908;BME280;47864;52.526;19.672;2023-06-19T04:51:54;153063.88;;;16.22;100.00
61908;BME280;47864;52.526;19.672;2023-06-19T04:53:55;153038.47;;;16.12;100.00
61908;BME280;47864;52.526;19.672;2023-06-19T04:55:57;153076.56;;;16.27;100.00
61908;BME280;47864;52.526;19.672;2023-06-19T04:58:02;153140.03;;;16.53;100.00
61908;BME280;47864;52.526;19.672;2023-06-19T05:00:04;153156.50;;;16.59;100.00
61908;BME280;47864;52.526;19.672;2023-06-19T05:02:06;153169.25;;;16.64;100.00
61908;BME280;47864;52.526;19.672;2023-06-19T05:04:08;153228.97;;;16.88;100.00
61908;BME280;47864;52.526;19.672;2023-06-19T05:06:10;153278.44;;;17.08;100.00
61908;BME280;47864;52.526;19.672;2023-06-19T05:08:12;153312.72;;;17.22;100.00
61908;BME280;47864;52.526;19.672;2023-06-19T05:10:14;153354.63;;;17.38;100.00
61908;BME280;47864;52.526;19.672;2023-06-19T05:12:17;153390.25;;;17.53;100.00
61908;BME280;47864;52.526;19.672;2023-06-19T05:14:18;153373.69;;;17.46;100.00
61908;BME280;47864;52.526;19.672;2023-06-19T05:16:20;153312.72;;;17.22;100.00
61908;BME280;47864;52.526;19.672;2023-06-19T05:18:21;153357.19;;;17.39;100.00
61908;BME280;47864;52.526;19.672;2023-06-19T05:20:23;153358.47;;;17.40;100.00
61908;BME280;47864;52.526;19.672;2023-06-19T05:22:25;153344.50;;;17.34;100.00
61908;BME280;47864;52.526;19.672;2023-06-19T05:24:27;153294.94;;;17.15;100.00
61908;BME280;47864;52.526;19.672;2023-06-19T05:26:28;153328.00;;;17.28;100.00
61908;BME280;47864;52.526;19.672;2023-06-19T05:28:30;153315.28;;;17.23;100.00
61908;BME280;47864;52.526;19.672;2023-06-19T05:30:32;153455.09;;;17.78;100.00
61908;BME280;47864;52.526;19.672;2023-06-19T05:32:33;153533.84;;;18.10;100.00
61908;BME280;47864;52.526;19.672;2023-06-19T05:34:35;153574.53;;;18.26;100.00
61908;BME280;47864;52.526;19.672;2023-06-19T05:36:36;153560.50;;;18.20;100.00
61908;BME280;47864;52.526;19.672;2023-06-19T05:38:38;153577.06;;;18.27;100.00
61908;BME280;47864;52.526;19.672;2023-06-19T05:40:39;153659.75;;;18.60;100.00
61908;BME280;47864;52.526;19.672;2023-06-19T05:42:41;153719.47;;;18.84;100.00
61908;BME280;47864;52.526;19.672;2023-06-19T05:44:43;153723.31;;;18.85;100.00
61908;BME280;47864;52.526;19.672;2023-06-19T05:46:44;153725.81;;;18.86;100.00
61908;BME280;47864;52.526;19.672;2023-06-19T05:48:47;153803.41;;;19.17;100.00
61908;BME280;47864;52.526;19.672;2023-06-19T05:50:49;153860.63;;;19.40;100.00
61908;BME280;47864;52.526;19.672;2023-06-19T05:52:51;153840.28;;;19.32;100.00
61908;BME280;47864;52.526;19.672;2023-06-19T05:54:52;153891.19;;;19.52;100.00
61908;BME280;47864;52.526;19.672;2023-06-19T05:56:54;153830.09;;;19.28;100.00
61908;BME280;47864;52.526;19.672;2023-06-19T05:58:55;153916.63;;;19.62;100.00
61908;BME280;47864;52.526;19.672;2023-06-19T06:00:57;153889.94;;;19.52;100.00
61908;BME280;47864;52.526;19.672;2023-06-19T06:02:59;153933.16;;;19.69;100.00
61908;BME280;47864;52.526;19.672;2023-06-19T06:05:01;154027.34;;;20.06;100.00
61908;BME280;47864;52.526;19.672;2023-06-19T06:07:02;154079.47;;;20.27;100.00
61908;BME280;47864;52.526;19.672;2023-06-19T06:09:04;154068.06;;;20.23;100.00
61908;BME280;47864;52.526;19.672;2023-06-19T06:11:05;154083.31;;;20.29;100.00
61908;BME280;47864;52.526;19.672;2023-06-19T06:13:07;154166.09;;;20.62;100.00
61908;BME280;47864;52.526;19.672;2023-06-19T06:15:08;154251.38;;;20.96;100.00
61908;BME280;47864;52.526;19.672;2023-06-19T06:17:10;154304.91;;;21.17;100.00
61908;BME280;47864;52.526;19.672;2023-06-19T06:19:12;154409.31;;;21.58;100.00
61908;BME280;47864;52.526;19.672;2023-06-19T06:21:13;154516.38;;;22.01;100.00
61908;BME280;47864;52.526;19.672;2023-06-19T06:23:15;154595.38;;;22.32;100.00
61908;BME280;47864;52.526;19.672;2023-06-19T06:25:16;154638.69;;;22.50;100.00
61908;BME280;47864;52.526;19.672;2023-06-19T06:27:18;154713.97;;;22.80;100.00
61908;BME280;47864;52.526;19.672;2023-06-19T06:29:19;154758.59;;;22.97;100.00
61908;BME280;47864;52.526;19.672;2023-06-19T06:31:24;154863.16;;;23.39;100.00
61908;BME280;47864;52.526;19.672;2023-06-19T06:33:25;154835.09;;;23.28;100.00
61908;BME280;47864;52.526;19.672;2023-06-19T06:35:27;154988.13;;;23.88;96.48
61908;BME280;47864;52.526;19.672;2023-06-19T06:37:28;155115.75;;;24.39;90.33
61908;BME280;47864;52.526;19.672;2023-06-19T06:39:30;155224.25;;;24.82;86.75
61908;BME280;47864;52.526;19.672;2023-06-19T06:41:32;155145.13;;;24.51;87.07
61908;BME280;47864;52.526;19.672;2023-06-19T06:43:33;155404.25;;;25.54;84.78
61908;BME280;47864;52.526;19.672;2023-06-19T06:45:35;155547.38;;;26.10;78.60
61908;BME280;47864;52.526;19.672;2023-06-19T06:47:37;155662.38;;;26.56;79.00
61908;BME280;47864;52.526;19.672;2023-06-19T06:49:38;155731.38;;;26.83;74.43
61908;BME280;47864;52.526;19.672;2023-06-19T06:51:40;155737.72;;;26.86;72.62
61908;BME280;47864;52.526;19.672;2023-06-19T06:53:42;155823.41;;;27.20;69.40
61908;BME280;47864;52.526;19.672;2023-06-19T06:55:44;155895.00;;;27.48;71.46
61908;BME280;47864;52.526;19.672;2023-06-19T06:57:45;155997.31;;;27.89;69.89
61908;BME280;47864;52.526;19.672;2023-06-19T06:59:47;155973.00;;;27.79;63.05
61908;BME280;47864;52.526;19.672;2023-06-19T07:01:48;155999.88;;;27.90;64.83
61908;BME280;47864;52.526;19.672;2023-06-19T07:03:50;156091.97;;;28.26;65.28
61908;BME280;47864;52.526;19.672;2023-06-19T07:05:52;156112.41;;;28.34;65.21
61908;BME280;47864;52.526;19.672;2023-06-19T07:07:53;156201.97;;;28.70;63.09
61908;BME280;47864;52.526;19.672;2023-06-19T07:09:55;156140.56;;;28.46;57.82
61908;BME280;47864;52.526;19.672;2023-06-19T07:11:56;156150.78;;;28.50;57.58
61908;BME280;47864;52.526;19.672;2023-06-19T07:13:58;156103.50;;;28.31;61.19
61908;BME280;47864;52.526;19.672;2023-06-19T07:16:00;156278.75;;;29.00;60.02
61908;BME280;47864;52.526;19.672;2023-06-19T07:18:01;156301.78;;;29.09;56.81
61908;BME280;47864;52.526;19.672;2023-06-19T07:20:04;156251.91;;;28.90;55.20
61908;BME280;47864;52.526;19.672;2023-06-19T07:22:06;156251.91;;;28.90;56.15
61908;BME280;47864;52.526;19.672;2023-06-19T07:24:08;156112.41;;;28.34;57.33
61908;BME280;47864;52.526;19.672;2023-06-19T07:26:09;156233.97;;;28.83;57.23
61908;BME280;47864;52.526;19.672;2023-06-19T07:28:11;156354.25;;;29.30;57.49
61908;BME280;47864;52.526;19.672;2023-06-19T07:30:13;156181.50;;;28.62;56.18
61908;BME280;47864;52.526;19.672;2023-06-19T07:32:17;155966.59;;;27.77;58.60
61908;BME280;47864;52.526;19.672;2023-06-19T07:34:19;156056.13;;;28.12;59.50
61908;BME280;47864;52.526;19.672;2023-06-19T07:36:20;156146.97;;;28.48;59.23
61908;BME280;47864;52.526;19.672;2023-06-19T07:38:22;156271.09;;;28.97;58.86
61908;BME280;47864;52.526;19.672;2023-06-19T07:40:24;156217.34;;;28.76;56.40
61908;BME280;47864;52.526;19.672;2023-06-19T07:42:26;156264.69;;;28.95;56.89
61908;BME280;47864;52.526;19.672;2023-06-19T07:44:27;156364.47;;;29.34;55.63
61908;BME280;47864;52.526;19.672;2023-06-19T07:46:29;156367.09;;;29.35;56.73
61908;BME280;47864;52.526;19.672;2023-06-19T07:48:30;156442.56;;;29.65;53.39
61908;BME280;47864;52.526;19.672;2023-06-19T07:50:32;156408.03;;;29.51;54.99
61908;BME280;47864;52.526;19.672;2023-06-19T07:52:34;156408.03;;;29.51;52.96
61908;BME280;47864;52.526;19.672;2023-06-19T07:54:36;156452.84;;;29.69;56.43
61908;BME280;47864;52.526;19.672;2023-06-19T07:56:38;156263.41;;;28.94;53.54
61908;BME280;47864;52.526;19.672;2023-06-19T07:58:39;156322.25;;;29.18;55.45
61908;BME280;47864;52.526;19.672;2023-06-19T08:00:41;156411.88;;;29.53;53.12
61908;BME280;47864;52.526;19.672;2023-06-19T08:02:42;156374.78;;;29.38;56.21
61908;BME280;47864;52.526;19.672;2023-06-19T08:04:45;156488.66;;;29.83;52.20
61908;BME280;47864;52.526;19.672;2023-06-19T08:06:47;156209.66;;;28.73;52.77
61908;BME280;47864;52.526;19.672;2023-06-19T08:08:48;156324.81;;;29.19;50.56
61908;BME280;47864;52.526;19.672;2023-06-19T08:10:50;156057.41;;;28.13;52.81
61908;BME280;47864;52.526;19.672;2023-06-19T08:12:52;156136.72;;;28.44;53.77
61908;BME280;47864;52.526;19.672;2023-06-19T08:14:54;156083.03;;;28.23;52.60
61908;BME280;47864;52.526;19.672;2023-06-19T08:16:56;156135.44;;;28.44;54.60
61908;BME280;47864;52.526;19.672;2023-06-19T08:18:58;156141.84;;;28.46;48.73
61908;BME280;47864;52.526;19.672;2023-06-19T08:20:59;156222.47;;;28.78;51.05
61908;BME280;47864;52.526;19.672;2023-06-19T08:23:01;156273.66;;;28.98;48.77
61908;BME280;47864;52.526;19.672;2023-06-19T08:25:07;156341.44;;;29.25;48.66
61908;BME280;47864;52.526;19.672;2023-06-19T08:27:08;156223.75;;;28.79;49.56
61908;BME280;47864;52.526;19.672;2023-06-19T08:29:10;156230.16;;;28.81;50.33
61908;BME280;47864;52.526;19.672;2023-06-19T08:31:11;156315.88;;;29.15;53.45
61908;BME280;47864;52.526;19.672;2023-06-19T08:33:13;156301.78;;;29.09;50.92
61908;BME280;47864;52.526;19.672;2023-06-19T08:35:15;156306.91;;;29.11;49.86
61908;BME280;47864;52.526;19.672;2023-06-19T08:37:17;156024.19;;;27.99;50.75
61908;BME280;47864;52.526;19.672;2023-06-19T08:39:19;155788.91;;;27.06;52.52
61908;BME280;47864;52.526;19.672;2023-06-19T08:41:21;155854.09;;;27.32;55.61
61908;BME280;47864;52.526;19.672;2023-06-19T08:43:23;156058.69;;;28.13;54.17
61908;BME280;47864;52.526;19.672;2023-06-19T08:45:26;156071.50;;;28.18;51.62
61908;BME280;47864;52.526;19.672;2023-06-19T08:47:34;155912.94;;;27.55;54.09
61908;BME280;47864;52.526;19.672;2023-06-19T08:49:36;155827.25;;;27.21;54.51
61908;BME280;47864;52.526;19.672;2023-06-19T08:51:37;155786.34;;;27.05;54.04
61908;BME280;47864;52.526;19.672;2023-06-19T08:53:46;155841.28;;;27.27;54.90
61908;BME280;47864;52.526;19.672;2023-06-19T08:55:48;155742.84;;;26.88;54.24
61908;BME280;47864;52.526;19.672;2023-06-19T08:57:50;155857.94;;;27.34;52.02
61908;BME280;47864;52.526;19.672;2023-06-19T08:59:52;155993.47;;;27.87;52.08
61908;BME280;47864;52.526;19.672;2023-06-19T09:01:54;155964.03;;;27.76;51.55
61908;BME280;47864;52.526;19.672;2023-06-19T09:03:56;156090.66;;;28.26;50.83
61908;BME280;47864;52.526;19.672;2023-06-19T09:06:08;156185.34;;;28.63;51.91
61908;BME280;47864;52.526;19.672;2023-06-19T09:08:13;156223.75;;;28.79;47.66
61908;BME280;47864;52.526;19.672;2023-06-19T09:10:16;156262.13;;;28.94;45.49
61908;BME280;47864;52.526;19.672;2023-06-19T09:12:18;156345.28;;;29.27;46.92
61908;BME280;47864;52.526;19.672;2023-06-19T09:14:24;156372.22;;;29.37;48.06
61908;BME280;47864;52.526;19.672;2023-06-19T09:16:36;156233.97;;;28.83;47.24
61908;BME280;47864;52.526;19.672;2023-06-19T09:18:43;156140.56;;;28.46;50.49
61908;BME280;47864;52.526;19.672;2023-06-19T09:20:46;156033.09;;;28.03;47.98
61908;BME280;47864;52.526;19.672;2023-06-19T09:22:47;156059.97;;;28.14;49.52
61908;BME280;47864;52.526;19.672;2023-06-19T09:24:49;156122.66;;;28.38;51.61
61908;BME280;47864;52.526;19.672;2023-06-19T09:26:51;156233.97;;;28.83;47.87
61908;BME280;47864;52.526;19.672;2023-06-19T09:28:52;155935.94;;;27.64;49.14
61908;BME280;47864;52.526;19.672;2023-06-19T09:33:06;156129.09;;;28.41;47.51
61908;BME280;47864;52.526;19.672;2023-06-19T09:35:08;156240.38;;;28.85;47.24
61908;BME280;47864;52.526;19.672;2023-06-19T09:37:10;156299.22;;;29.08;47.87
61908;BME280;47864;52.526;19.672;2023-06-19T09:39:12;156333.78;;;29.22;47.24
61908;BME280;47864;52.526;19.672;2023-06-19T09:41:15;156333.78;;;29.22;47.43
61908;BME280;47864;52.526;19.672;2023-06-19T09:43:19;156329.94;;;29.21;43.19
61908;BME280;47864;52.526;19.672;2023-06-19T09:45:27;156112.41;;;28.34;47.90
61908;BME280;47864;52.526;19.672;2023-06-19T09:47:53;155838.78;;;27.26;48.84
61908;BME280;47864;52.526;19.672;2023-06-19T09:49:55;155678.97;;;26.63;50.15
61908;BME280;47864;52.526;19.672;2023-06-19T09:51:56;155538.41;;;26.07;48.92
61908;BME280;47864;52.526;19.672;2023-06-19T09:53:58;155501.38;;;25.92;50.88
61908;BME280;47864;52.526;19.672;2023-06-19T09:56:00;155496.28;;;25.90;53.55
61908;BME280;47864;52.526;19.672;2023-06-19T09:58:03;155473.28;;;25.81;56.82
61908;BME280;47864;52.526;19.672;2023-06-19T10:00:06;155495.00;;;25.90;57.67
61908;BME280;47864;52.526;19.672;2023-06-19T10:02:08;155553.72;;;26.13;59.34
61908;BME280;47864;52.526;19.672;2023-06-19T10:04:12;155700.69;;;26.71;56.85
61908;BME280;47864;52.526;19.672;2023-06-19T10:06:16;155864.28;;;27.36;50.71
61908;BME280;47864;52.526;19.672;2023-06-19T10:08:27;155970.44;;;27.78;53.64
61908;BME280;47864;52.526;19.672;2023-06-19T10:10:29;156010.06;;;27.94;51.94
61908;BME280;47864;52.526;19.672;2023-06-19T10:12:45;156068.94;;;28.17;49.74
61908;BME280;47864;52.526;19.672;2023-06-19T10:14:47;155992.19;;;27.87;49.72
61908;BME280;47864;52.526;19.672;2023-06-19T10:16:49;155962.81;;;27.75;46.32
61908;BME280;47864;52.526;19.672;2023-06-19T10:18:50;155930.81;;;27.62;47.15
61908;BME280;47864;52.526;19.672;2023-06-19T10:20:54;156140.56;;;28.46;46.10
61908;BME280;47864;52.526;19.672;2023-06-19T10:23:02;156026.69;;;28.00;42.54
61908;BME280;47864;52.526;19.672;2023-06-19T10:25:06;156100.94;;;28.30;44.89
61908;BME280;47864;52.526;19.672;2023-06-19T10:27:07;156250.63;;;28.89;43.62
61908;BME280;47864;52.526;19.672;2023-06-19T10:29:16;156317.13;;;29.15;42.45